DLH9PZ ENBR-EDDF
Flight info
| Callsign | DLH9PZ |
|---|---|
| Flight time | 1h 42m |
| Altitude | 35000 |
| Route | TUXIL DCT ZOL DCT GREFI DCT SOGPO DCT DIXAT DIXAT1A |
| Aircraft | A320/M-SDE3FGHIRWY/LB1 |
Departure
| Time | 2026-04-17 08:38 |
|---|---|
| Airport | Bergen Airport, Flesland (ENBR) |
Arrival
| Time | 2026-04-17 10:21 |
|---|---|
| Airport | Frankfurt Main Airport (EDDF) |
| Time | Latitude | Longitude | Altitude | Speed | Heading |
|---|---|---|---|---|---|
| 2026-04-17 07:28 | 60.28700 | 5.22921 | 173 ft | 0 kts | 80° |
| 2026-04-17 08:27 | 60.28698 | 5.22899 | 173 ft | 4 kts | 80° |
| 2026-04-17 08:27 | 60.28694 | 5.22845 | 173 ft | 3 kts | 80° |
| 2026-04-17 08:27 | 60.28693 | 5.22837 | 173 ft | 0 kts | 80° |
| 2026-04-17 08:30 | 60.28693 | 5.22838 | 173 ft | 1 kts | 80° |
| 2026-04-17 08:30 | 60.28713 | 5.22843 | 173 ft | 6 kts | 332° |
| 2026-04-17 08:30 | 60.28725 | 5.22764 | 172 ft | 7 kts | 275° |
| 2026-04-17 08:30 | 60.28717 | 5.22623 | 169 ft | 12 kts | 259° |
| 2026-04-17 08:31 | 60.28690 | 5.22453 | 165 ft | 13 kts | 247° |
| 2026-04-17 08:31 | 60.28733 | 5.22343 | 163 ft | 12 kts | 350° |
| 2026-04-17 08:31 | 60.28813 | 5.22315 | 162 ft | 11 kts | 351° |
| 2026-04-17 08:31 | 60.28893 | 5.22288 | 162 ft | 12 kts | 351° |
| 2026-04-17 08:32 | 60.28973 | 5.22262 | 162 ft | 11 kts | 351° |
| 2026-04-17 08:32 | 60.29046 | 5.22237 | 162 ft | 13 kts | 350° |
| 2026-04-17 08:32 | 60.29131 | 5.22206 | 163 ft | 13 kts | 350° |
| 2026-04-17 08:32 | 60.29263 | 5.22161 | 162 ft | 21 kts | 351° |
| 2026-04-17 08:33 | 60.29405 | 5.22113 | 158 ft | 21 kts | 350° |
| 2026-04-17 08:33 | 60.29550 | 5.22062 | 152 ft | 22 kts | 351° |
| 2026-04-17 08:33 | 60.29703 | 5.22015 | 148 ft | 22 kts | 351° |
| 2026-04-17 08:33 | 60.29843 | 5.21970 | 151 ft | 18 kts | 351° |
| 2026-04-17 08:34 | 60.29948 | 5.21934 | 155 ft | 13 kts | 351° |
| 2026-04-17 08:34 | 60.30050 | 5.21899 | 159 ft | 16 kts | 350° |
| 2026-04-17 08:34 | 60.30180 | 5.21855 | 164 ft | 18 kts | 351° |
| 2026-04-17 08:34 | 60.30295 | 5.21816 | 167 ft | 14 kts | 351° |
| 2026-04-17 08:35 | 60.30373 | 5.21790 | 171 ft | 9 kts | 351° |
| 2026-04-17 08:35 | 60.30460 | 5.21761 | 174 ft | 16 kts | 351° |
| 2026-04-17 08:35 | 60.30552 | 5.21731 | 178 ft | 11 kts | 351° |
| 2026-04-17 08:35 | 60.30612 | 5.21711 | 180 ft | 7 kts | 351° |
| 2026-04-17 08:36 | 60.30659 | 5.21666 | 182 ft | 9 kts | 311° |
| 2026-04-17 08:36 | 60.30664 | 5.21565 | 183 ft | 8 kts | 259° |
| 2026-04-17 08:36 | 60.30644 | 5.21430 | 188 ft | 9 kts | 232° |
| 2026-04-17 08:36 | 60.30576 | 5.21403 | 181 ft | 0 kts | 170° |
| 2026-04-17 08:37 | 60.30511 | 5.21426 | 176 ft | 29 kts | 170° |
| 2026-04-17 08:37 | 60.30081 | 5.21569 | 161 ft | 96 kts | 171° |
| 2026-04-17 08:37 | 60.29234 | 5.21855 | 158 ft | 147 kts | 171° |
| 2026-04-17 08:38 | 60.28152 | 5.22198 | 605 ft | 156 kts | 171° |
| 2026-04-17 08:38 | 60.27082 | 5.22538 | 1361 ft | 156 kts | 169° |
| 2026-04-17 08:38 | 60.25977 | 5.22915 | 1798 ft | 170 kts | 169° |
| 2026-04-17 08:38 | 60.24735 | 5.23339 | 2046 ft | 192 kts | 169° |
| 2026-04-17 08:39 | 60.23347 | 5.23810 | 2366 ft | 214 kts | 169° |
| 2026-04-17 08:39 | 60.21806 | 5.24331 | 2878 ft | 231 kts | 169° |
| 2026-04-17 08:39 | 60.20210 | 5.24867 | 3745 ft | 233 kts | 170° |
| 2026-04-17 08:39 | 60.18603 | 5.25407 | 4653 ft | 235 kts | 170° |
| 2026-04-17 08:40 | 60.16978 | 5.25951 | 5504 ft | 238 kts | 171° |
| 2026-04-17 08:40 | 60.15328 | 5.26497 | 6310 ft | 243 kts | 171° |
| 2026-04-17 08:40 | 60.13648 | 5.27053 | 7067 ft | 247 kts | 171° |
| 2026-04-17 08:40 | 60.11933 | 5.27622 | 7811 ft | 252 kts | 171° |
| 2026-04-17 08:41 | 60.10190 | 5.28204 | 8559 ft | 256 kts | 171° |
| 2026-04-17 08:41 | 60.08418 | 5.28778 | 9320 ft | 260 kts | 172° |
| 2026-04-17 08:41 | 60.06609 | 5.29289 | 10068 ft | 265 kts | 173° |
| 2026-04-17 08:41 | 60.04756 | 5.29773 | 10558 ft | 278 kts | 173° |
| 2026-04-17 08:42 | 60.02758 | 5.30285 | 10746 ft | 301 kts | 173° |
| 2026-04-17 08:42 | 60.00602 | 5.30843 | 10872 ft | 324 kts | 173° |
| 2026-04-17 08:42 | 59.98299 | 5.31446 | 11017 ft | 344 kts | 173° |
| 2026-04-17 08:42 | 59.95922 | 5.32069 | 11472 ft | 352 kts | 173° |
| 2026-04-17 08:43 | 59.93477 | 5.32716 | 12095 ft | 356 kts | 173° |
| 2026-04-17 08:43 | 59.91009 | 5.33373 | 12731 ft | 360 kts | 173° |
| 2026-04-17 08:43 | 59.88513 | 5.34039 | 13359 ft | 363 kts | 173° |
| 2026-04-17 08:43 | 59.85997 | 5.34711 | 13989 ft | 367 kts | 172° |
| 2026-04-17 08:44 | 59.83456 | 5.35386 | 14536 ft | 369 kts | 172° |
| 2026-04-17 08:44 | 59.80900 | 5.36063 | 15082 ft | 372 kts | 173° |
| 2026-04-17 08:44 | 59.78321 | 5.36694 | 15609 ft | 375 kts | 174° |
| 2026-04-17 08:44 | 59.75716 | 5.37189 | 16125 ft | 377 kts | 175° |
| 2026-04-17 08:45 | 59.73091 | 5.37601 | 16646 ft | 379 kts | 176° |
| 2026-04-17 08:45 | 59.70448 | 5.37978 | 17165 ft | 382 kts | 176° |
| 2026-04-17 08:45 | 59.67788 | 5.38358 | 17668 ft | 385 kts | 176° |
| 2026-04-17 08:45 | 59.65114 | 5.38757 | 18166 ft | 387 kts | 176° |
| 2026-04-17 08:46 | 59.62422 | 5.39255 | 18637 ft | 390 kts | 174° |
| 2026-04-17 08:46 | 59.59723 | 5.39900 | 19048 ft | 392 kts | 173° |
| 2026-04-17 08:46 | 59.57009 | 5.40628 | 19460 ft | 395 kts | 173° |
| 2026-04-17 08:46 | 59.54277 | 5.41388 | 19860 ft | 398 kts | 173° |
| 2026-04-17 08:47 | 59.51525 | 5.42146 | 20255 ft | 401 kts | 173° |
| 2026-04-17 08:47 | 59.48753 | 5.42882 | 20645 ft | 403 kts | 173° |
| 2026-04-17 08:47 | 59.45963 | 5.43595 | 21039 ft | 406 kts | 173° |
| 2026-04-17 08:47 | 59.43152 | 5.44301 | 21424 ft | 408 kts | 173° |
| 2026-04-17 08:48 | 59.40329 | 5.45009 | 21798 ft | 411 kts | 173° |
| 2026-04-17 08:48 | 59.37492 | 5.45840 | 22163 ft | 413 kts | 172° |
| 2026-04-17 08:48 | 59.34648 | 5.46835 | 22511 ft | 416 kts | 170° |
| 2026-04-17 08:48 | 59.31802 | 5.47919 | 22853 ft | 419 kts | 170° |
| 2026-04-17 08:49 | 59.28931 | 5.49039 | 23196 ft | 422 kts | 170° |
| 2026-04-17 08:49 | 59.26046 | 5.50155 | 23540 ft | 424 kts | 170° |
| 2026-04-17 08:49 | 59.23138 | 5.51255 | 23857 ft | 427 kts | 171° |
| 2026-04-17 08:49 | 59.20213 | 5.52329 | 24134 ft | 429 kts | 171° |
| 2026-04-17 08:50 | 59.17269 | 5.53390 | 24423 ft | 431 kts | 171° |
| 2026-04-17 08:50 | 59.14313 | 5.54445 | 24704 ft | 433 kts | 171° |
| 2026-04-17 08:50 | 59.11349 | 5.55502 | 24988 ft | 434 kts | 171° |
| 2026-04-17 08:50 | 59.08369 | 5.56569 | 25258 ft | 436 kts | 171° |
| 2026-04-17 08:51 | 59.05385 | 5.57640 | 25523 ft | 437 kts | 171° |
| 2026-04-17 08:51 | 59.02388 | 5.58712 | 25788 ft | 439 kts | 171° |
| 2026-04-17 08:51 | 58.99376 | 5.59785 | 26056 ft | 440 kts | 171° |
| 2026-04-17 08:51 | 58.96361 | 5.60862 | 26324 ft | 442 kts | 171° |
| 2026-04-17 08:52 | 58.93333 | 5.61940 | 26583 ft | 443 kts | 171° |
| 2026-04-17 08:52 | 58.90295 | 5.63021 | 26850 ft | 444 kts | 171° |
| 2026-04-17 08:52 | 58.87256 | 5.63965 | 27245 ft | 440 kts | 176° |
| 2026-04-17 08:52 | 58.84212 | 5.64248 | 27650 ft | 437 kts | 180° |
| 2026-04-17 08:53 | 58.81173 | 5.64431 | 28036 ft | 436 kts | 180° |
| 2026-04-17 08:53 | 58.78149 | 5.64610 | 28417 ft | 434 kts | 180° |
| 2026-04-17 08:53 | 58.75132 | 5.64791 | 28798 ft | 433 kts | 180° |
| 2026-04-17 08:53 | 58.72121 | 5.64979 | 29184 ft | 432 kts | 180° |
| 2026-04-17 08:54 | 58.69124 | 5.65166 | 29574 ft | 431 kts | 180° |
| 2026-04-17 08:54 | 58.66131 | 5.65351 | 29960 ft | 429 kts | 180° |
| 2026-04-17 08:54 | 58.63153 | 5.65535 | 30325 ft | 428 kts | 180° |
| 2026-04-17 08:54 | 58.60176 | 5.65712 | 30641 ft | 427 kts | 180° |
| 2026-04-17 08:55 | 58.57207 | 5.65890 | 30942 ft | 427 kts | 180° |
| 2026-04-17 08:55 | 58.54239 | 5.66071 | 31229 ft | 427 kts | 180° |
| 2026-04-17 08:55 | 58.51272 | 5.66260 | 31496 ft | 426 kts | 180° |
| 2026-04-17 08:55 | 58.48307 | 5.66454 | 31785 ft | 426 kts | 180° |
| 2026-04-17 08:56 | 58.45344 | 5.66643 | 32068 ft | 426 kts | 180° |
| 2026-04-17 08:56 | 58.42386 | 5.66825 | 32350 ft | 426 kts | 180° |
| 2026-04-17 08:56 | 58.39428 | 5.67004 | 32630 ft | 425 kts | 180° |
| 2026-04-17 08:56 | 58.36469 | 5.67182 | 32908 ft | 425 kts | 180° |
| 2026-04-17 08:57 | 58.33519 | 5.67357 | 33174 ft | 425 kts | 180° |
| 2026-04-17 08:57 | 58.30567 | 5.67531 | 33482 ft | 424 kts | 180° |
| 2026-04-17 08:57 | 58.27620 | 5.67699 | 33772 ft | 423 kts | 180° |
| 2026-04-17 08:57 | 58.24680 | 5.67874 | 34054 ft | 423 kts | 180° |
| 2026-04-17 08:58 | 58.21744 | 5.68052 | 34320 ft | 422 kts | 180° |
| 2026-04-17 08:58 | 58.18807 | 5.68229 | 34547 ft | 422 kts | 180° |
| 2026-04-17 08:58 | 58.15868 | 5.68410 | 34752 ft | 423 kts | 180° |
| 2026-04-17 08:58 | 58.12924 | 5.68593 | 34943 ft | 423 kts | 180° |
| 2026-04-17 08:59 | 58.09976 | 5.68775 | 35132 ft | 424 kts | 180° |
| 2026-04-17 08:59 | 58.04048 | 5.69132 | 35260 ft | 429 kts | 181° |
| 2026-04-17 09:00 | 57.98073 | 5.69474 | 35242 ft | 430 kts | 181° |
| 2026-04-17 09:00 | 57.92093 | 5.69824 | 35243 ft | 430 kts | 181° |
| 2026-04-17 09:01 | 57.86112 | 5.70186 | 35256 ft | 430 kts | 181° |
| 2026-04-17 09:01 | 57.80131 | 5.70540 | 35240 ft | 430 kts | 181° |
| 2026-04-17 09:02 | 57.74154 | 5.70893 | 35227 ft | 430 kts | 181° |
| 2026-04-17 09:02 | 57.68170 | 5.71242 | 35228 ft | 430 kts | 181° |
| 2026-04-17 09:03 | 57.62188 | 5.71592 | 35229 ft | 430 kts | 181° |
| 2026-04-17 09:03 | 57.56252 | 5.71940 | 35230 ft | 430 kts | 181° |
| 2026-04-17 09:04 | 57.50271 | 5.72287 | 35208 ft | 430 kts | 182° |
| 2026-04-17 09:04 | 57.44286 | 5.72634 | 35206 ft | 430 kts | 182° |
| 2026-04-17 09:05 | 57.38298 | 5.72980 | 35209 ft | 431 kts | 182° |
| 2026-04-17 09:05 | 57.32307 | 5.73342 | 35220 ft | 431 kts | 182° |
| 2026-04-17 09:06 | 57.26316 | 5.73692 | 35210 ft | 431 kts | 182° |
| 2026-04-17 09:06 | 57.20320 | 5.74022 | 35209 ft | 431 kts | 183° |
| 2026-04-17 09:07 | 57.15325 | 5.74301 | 35202 ft | 432 kts | 183° |
| 2026-04-17 09:07 | 57.09308 | 5.74649 | 35211 ft | 433 kts | 183° |
| 2026-04-17 09:08 | 57.03281 | 5.74987 | 35213 ft | 434 kts | 183° |
| 2026-04-17 09:08 | 56.97246 | 5.75344 | 35184 ft | 434 kts | 183° |
| 2026-04-17 09:09 | 56.91204 | 5.75686 | 35188 ft | 435 kts | 184° |
| 2026-04-17 09:09 | 56.85147 | 5.76006 | 35194 ft | 436 kts | 184° |
| 2026-04-17 09:10 | 56.76036 | 5.76519 | 35198 ft | 437 kts | 184° |
| 2026-04-17 09:10 | 56.69956 | 5.76860 | 35177 ft | 437 kts | 184° |
| 2026-04-17 09:11 | 56.63868 | 5.77200 | 35188 ft | 438 kts | 185° |
| 2026-04-17 09:11 | 56.57764 | 5.77534 | 35200 ft | 439 kts | 184° |
| 2026-04-17 09:12 | 56.54710 | 5.77701 | 35396 ft | 439 kts | 184° |
| 2026-04-17 09:12 | 56.51653 | 5.77870 | 35585 ft | 440 kts | 184° |
| 2026-04-17 09:12 | 56.48592 | 5.78037 | 35743 ft | 441 kts | 184° |
| 2026-04-17 09:12 | 56.45525 | 5.78207 | 35905 ft | 441 kts | 184° |
| 2026-04-17 09:13 | 56.42453 | 5.78378 | 36051 ft | 442 kts | 184° |
| 2026-04-17 09:13 | 56.39376 | 5.78543 | 36211 ft | 442 kts | 184° |
| 2026-04-17 09:13 | 56.36299 | 5.78709 | 36373 ft | 443 kts | 184° |
| 2026-04-17 09:13 | 56.33219 | 5.78875 | 36542 ft | 443 kts | 184° |
| 2026-04-17 09:14 | 56.30142 | 5.79044 | 36712 ft | 443 kts | 184° |
| 2026-04-17 09:14 | 56.27058 | 5.79218 | 36874 ft | 443 kts | 184° |
| 2026-04-17 09:14 | 56.23975 | 5.79392 | 37022 ft | 443 kts | 184° |
| 2026-04-17 09:14 | 56.20895 | 5.79560 | 37191 ft | 443 kts | 184° |
| 2026-04-17 09:15 | 56.14723 | 5.79882 | 37214 ft | 443 kts | 184° |
| 2026-04-17 09:15 | 56.08559 | 5.80201 | 37213 ft | 443 kts | 184° |
| 2026-04-17 09:16 | 56.02397 | 5.80540 | 37213 ft | 443 kts | 183° |
| 2026-04-17 09:16 | 55.96232 | 5.80879 | 37213 ft | 443 kts | 184° |
| 2026-04-17 09:17 | 55.90066 | 5.81218 | 37226 ft | 443 kts | 184° |
| 2026-04-17 09:17 | 55.83896 | 5.81545 | 37226 ft | 444 kts | 184° |
| 2026-04-17 09:18 | 55.77725 | 5.81872 | 37225 ft | 444 kts | 184° |
| 2026-04-17 09:18 | 55.71557 | 5.82191 | 37222 ft | 444 kts | 184° |
| 2026-04-17 09:19 | 55.65382 | 5.82511 | 37245 ft | 444 kts | 184° |
| 2026-04-17 09:19 | 55.59209 | 5.82838 | 37206 ft | 444 kts | 184° |
| 2026-04-17 09:20 | 55.53030 | 5.83169 | 37224 ft | 444 kts | 184° |
| 2026-04-17 09:20 | 55.46852 | 5.83495 | 37220 ft | 444 kts | 184° |
| 2026-04-17 09:21 | 55.40671 | 5.83817 | 37224 ft | 444 kts | 184° |
| 2026-04-17 09:21 | 55.34490 | 5.84127 | 37212 ft | 444 kts | 184° |
| 2026-04-17 09:22 | 55.28303 | 5.84441 | 37214 ft | 445 kts | 184° |
| 2026-04-17 09:22 | 55.22110 | 5.84766 | 37218 ft | 445 kts | 184° |
| 2026-04-17 09:23 | 55.15915 | 5.85090 | 37224 ft | 445 kts | 184° |
| 2026-04-17 09:23 | 55.09718 | 5.85399 | 37207 ft | 446 kts | 184° |
| 2026-04-17 09:24 | 55.03514 | 5.85721 | 37211 ft | 446 kts | 184° |
| 2026-04-17 09:24 | 54.97305 | 5.86127 | 37216 ft | 448 kts | 182° |
| 2026-04-17 09:25 | 54.91080 | 5.86972 | 37223 ft | 449 kts | 180° |
| 2026-04-17 09:25 | 54.84853 | 5.87969 | 37212 ft | 449 kts | 180° |
| 2026-04-17 09:26 | 54.78622 | 5.88893 | 37218 ft | 449 kts | 181° |
| 2026-04-17 09:26 | 54.72390 | 5.89736 | 37229 ft | 449 kts | 181° |
| 2026-04-17 09:27 | 54.66156 | 5.90562 | 37235 ft | 449 kts | 181° |
| 2026-04-17 09:27 | 54.59927 | 5.91408 | 37216 ft | 449 kts | 181° |
| 2026-04-17 09:28 | 54.53690 | 5.92266 | 37214 ft | 450 kts | 181° |
| 2026-04-17 09:28 | 54.47441 | 5.93122 | 37219 ft | 451 kts | 181° |
| 2026-04-17 09:29 | 54.41180 | 5.93973 | 37228 ft | 451 kts | 181° |
| 2026-04-17 09:29 | 54.34917 | 5.94818 | 37210 ft | 452 kts | 181° |
| 2026-04-17 09:30 | 54.28648 | 5.95674 | 37217 ft | 452 kts | 181° |
| 2026-04-17 09:30 | 54.22372 | 5.96535 | 37232 ft | 452 kts | 181° |
| 2026-04-17 09:31 | 54.16097 | 5.97373 | 37234 ft | 453 kts | 181° |
| 2026-04-17 09:31 | 54.09815 | 5.98197 | 37242 ft | 453 kts | 181° |
| 2026-04-17 09:32 | 54.03526 | 5.99025 | 37218 ft | 453 kts | 181° |
| 2026-04-17 09:32 | 53.97234 | 5.99862 | 37225 ft | 454 kts | 181° |
| 2026-04-17 09:33 | 53.90937 | 6.00707 | 37229 ft | 454 kts | 181° |
| 2026-04-17 09:33 | 53.84683 | 6.01534 | 37233 ft | 454 kts | 181° |
| 2026-04-17 09:34 | 53.78342 | 6.02356 | 37219 ft | 454 kts | 181° |
| 2026-04-17 09:34 | 53.72032 | 6.03178 | 37226 ft | 455 kts | 181° |
| 2026-04-17 09:35 | 53.65718 | 6.04007 | 37230 ft | 455 kts | 181° |
| 2026-04-17 09:35 | 53.59405 | 6.04845 | 37232 ft | 455 kts | 181° |
| 2026-04-17 09:36 | 53.53093 | 6.05663 | 37221 ft | 455 kts | 181° |
| 2026-04-17 09:36 | 53.46773 | 6.06475 | 37226 ft | 456 kts | 181° |
| 2026-04-17 09:37 | 53.40444 | 6.07284 | 37232 ft | 456 kts | 181° |
| 2026-04-17 09:37 | 53.34112 | 6.08100 | 37240 ft | 457 kts | 181° |
| 2026-04-17 09:38 | 53.27774 | 6.08926 | 37247 ft | 457 kts | 181° |
| 2026-04-17 09:38 | 53.21432 | 6.09748 | 37250 ft | 457 kts | 181° |
| 2026-04-17 09:39 | 53.15139 | 6.10555 | 37250 ft | 457 kts | 181° |
| 2026-04-17 09:39 | 53.08800 | 6.11360 | 37224 ft | 456 kts | 181° |
| 2026-04-17 09:40 | 53.02461 | 6.12162 | 37223 ft | 457 kts | 181° |
| 2026-04-17 09:40 | 52.96117 | 6.12966 | 37222 ft | 458 kts | 181° |
| 2026-04-17 09:41 | 52.89765 | 6.13765 | 37219 ft | 458 kts | 181° |
| 2026-04-17 09:41 | 52.83406 | 6.14560 | 37204 ft | 458 kts | 181° |
| 2026-04-17 09:42 | 52.77048 | 6.15366 | 37214 ft | 459 kts | 181° |
| 2026-04-17 09:42 | 52.70682 | 6.16165 | 37222 ft | 459 kts | 181° |
| 2026-04-17 09:43 | 52.64307 | 6.16963 | 37223 ft | 459 kts | 181° |
| 2026-04-17 09:43 | 52.57937 | 6.17753 | 37210 ft | 459 kts | 180° |
| 2026-04-17 09:44 | 52.51557 | 6.18539 | 37212 ft | 460 kts | 181° |
| 2026-04-17 09:44 | 52.45181 | 6.19331 | 37226 ft | 460 kts | 180° |
| 2026-04-17 09:45 | 52.38800 | 6.20119 | 37216 ft | 460 kts | 181° |
| 2026-04-17 09:45 | 52.32414 | 6.20904 | 37223 ft | 460 kts | 180° |
| 2026-04-17 09:46 | 52.26027 | 6.21693 | 37230 ft | 460 kts | 180° |
| 2026-04-17 09:46 | 52.19640 | 6.22470 | 37234 ft | 460 kts | 180° |
| 2026-04-17 09:47 | 52.13255 | 6.23250 | 37235 ft | 460 kts | 180° |
| 2026-04-17 09:47 | 52.06873 | 6.24041 | 37218 ft | 460 kts | 180° |
| 2026-04-17 09:48 | 52.00489 | 6.25033 | 37215 ft | 464 kts | 173° |
| 2026-04-17 09:48 | 51.94382 | 6.28677 | 37215 ft | 475 kts | 153° |
| 2026-04-17 09:49 | 51.89933 | 6.33971 | 37219 ft | 479 kts | 143° |
| 2026-04-17 09:49 | 51.84752 | 6.40766 | 37205 ft | 480 kts | 144° |
| 2026-04-17 09:50 | 51.79539 | 6.47533 | 37219 ft | 481 kts | 144° |
| 2026-04-17 09:50 | 51.74317 | 6.54294 | 37229 ft | 481 kts | 144° |
| 2026-04-17 09:51 | 51.69089 | 6.61049 | 37227 ft | 482 kts | 144° |
| 2026-04-17 09:51 | 51.63861 | 6.67805 | 37232 ft | 482 kts | 144° |
| 2026-04-17 09:52 | 51.58632 | 6.74541 | 37223 ft | 481 kts | 144° |
| 2026-04-17 09:52 | 51.53396 | 6.81257 | 37226 ft | 482 kts | 144° |
| 2026-04-17 09:53 | 51.48149 | 6.87960 | 37225 ft | 482 kts | 144° |
| 2026-04-17 09:53 | 51.42890 | 6.94636 | 37226 ft | 483 kts | 144° |
| 2026-04-17 09:54 | 51.40259 | 6.97976 | 37026 ft | 483 kts | 144° |
| 2026-04-17 09:54 | 51.37630 | 7.01313 | 36514 ft | 484 kts | 144° |
| 2026-04-17 09:54 | 51.34990 | 7.04659 | 35809 ft | 484 kts | 144° |
| 2026-04-17 09:54 | 51.32352 | 7.08008 | 35139 ft | 484 kts | 144° |
| 2026-04-17 09:55 | 51.29713 | 7.11350 | 34478 ft | 484 kts | 144° |
| 2026-04-17 09:55 | 51.27024 | 7.14567 | 33766 ft | 482 kts | 150° |
| 2026-04-17 09:55 | 51.24125 | 7.17196 | 33046 ft | 479 kts | 156° |
| 2026-04-17 09:55 | 51.21131 | 7.19564 | 32328 ft | 481 kts | 156° |
| 2026-04-17 09:56 | 51.18131 | 7.21937 | 31631 ft | 482 kts | 156° |
| 2026-04-17 09:56 | 51.15129 | 7.24309 | 30959 ft | 483 kts | 156° |
| 2026-04-17 09:56 | 51.12117 | 7.26682 | 30291 ft | 483 kts | 156° |
| 2026-04-17 09:56 | 51.09105 | 7.29075 | 29511 ft | 484 kts | 155° |
| 2026-04-17 09:57 | 51.06112 | 7.31515 | 28770 ft | 482 kts | 154° |
| 2026-04-17 09:57 | 51.03159 | 7.33968 | 28159 ft | 476 kts | 154° |
| 2026-04-17 09:57 | 51.00255 | 7.36403 | 27552 ft | 469 kts | 154° |
| 2026-04-17 09:57 | 50.97379 | 7.38809 | 26961 ft | 464 kts | 154° |
| 2026-04-17 09:58 | 50.94536 | 7.41171 | 26376 ft | 459 kts | 154° |
| 2026-04-17 09:58 | 50.91717 | 7.43492 | 25796 ft | 454 kts | 155° |
| 2026-04-17 09:58 | 50.88920 | 7.45781 | 25245 ft | 450 kts | 155° |
| 2026-04-17 09:58 | 50.86151 | 7.48039 | 24703 ft | 446 kts | 155° |
| 2026-04-17 09:59 | 50.83403 | 7.50274 | 24146 ft | 442 kts | 155° |
| 2026-04-17 09:59 | 50.80682 | 7.52485 | 23581 ft | 438 kts | 155° |
| 2026-04-17 09:59 | 50.77984 | 7.54679 | 22960 ft | 435 kts | 154° |
| 2026-04-17 09:59 | 50.75311 | 7.56861 | 22340 ft | 431 kts | 154° |
| 2026-04-17 10:00 | 50.72653 | 7.59028 | 21750 ft | 428 kts | 154° |
| 2026-04-17 10:00 | 50.70019 | 7.61168 | 21154 ft | 425 kts | 154° |
| 2026-04-17 10:00 | 50.67402 | 7.63290 | 20578 ft | 421 kts | 154° |
| 2026-04-17 10:00 | 50.64817 | 7.65386 | 20025 ft | 413 kts | 154° |
| 2026-04-17 10:01 | 50.62293 | 7.67428 | 19494 ft | 402 kts | 154° |
| 2026-04-17 10:01 | 50.59833 | 7.69415 | 18998 ft | 393 kts | 154° |
| 2026-04-17 10:01 | 50.57426 | 7.71357 | 18502 ft | 384 kts | 154° |
| 2026-04-17 10:01 | 50.55071 | 7.73250 | 17947 ft | 377 kts | 154° |
| 2026-04-17 10:02 | 50.52756 | 7.75111 | 17387 ft | 371 kts | 154° |
| 2026-04-17 10:02 | 50.50461 | 7.76955 | 16845 ft | 371 kts | 154° |
| 2026-04-17 10:02 | 50.48161 | 7.78799 | 16308 ft | 371 kts | 154° |
| 2026-04-17 10:02 | 50.45857 | 7.80644 | 15780 ft | 372 kts | 154° |
| 2026-04-17 10:03 | 50.43580 | 7.82576 | 15262 ft | 372 kts | 148° |
| 2026-04-17 10:03 | 50.41509 | 7.85012 | 14760 ft | 372 kts | 142° |
| 2026-04-17 10:03 | 50.39483 | 7.87532 | 14257 ft | 372 kts | 142° |
| 2026-04-17 10:03 | 50.37458 | 7.90049 | 13727 ft | 371 kts | 142° |
| 2026-04-17 10:04 | 50.35439 | 7.92555 | 13177 ft | 370 kts | 142° |
| 2026-04-17 10:04 | 50.33426 | 7.95049 | 12632 ft | 368 kts | 142° |
| 2026-04-17 10:04 | 50.31421 | 7.97524 | 12099 ft | 366 kts | 142° |
| 2026-04-17 10:04 | 50.29421 | 7.99982 | 11578 ft | 364 kts | 142° |
| 2026-04-17 10:05 | 50.27439 | 8.02421 | 11057 ft | 361 kts | 142° |
| 2026-04-17 10:05 | 50.25668 | 8.05161 | 10557 ft | 358 kts | 128° |
| 2026-04-17 10:05 | 50.24166 | 8.08220 | 10265 ft | 348 kts | 128° |
| 2026-04-17 10:05 | 50.22729 | 8.11153 | 10220 ft | 332 kts | 128° |
| 2026-04-17 10:06 | 50.21358 | 8.13935 | 10233 ft | 315 kts | 128° |
| 2026-04-17 10:06 | 50.20055 | 8.16582 | 10237 ft | 301 kts | 128° |
| 2026-04-17 10:06 | 50.18791 | 8.19144 | 10241 ft | 296 kts | 128° |
| 2026-04-17 10:06 | 50.17535 | 8.21681 | 10242 ft | 295 kts | 128° |
| 2026-04-17 10:07 | 50.16277 | 8.24216 | 10244 ft | 295 kts | 128° |
| 2026-04-17 10:07 | 50.15021 | 8.26741 | 10243 ft | 295 kts | 128° |
| 2026-04-17 10:07 | 50.13764 | 8.29272 | 10246 ft | 295 kts | 128° |
| 2026-04-17 10:07 | 50.12510 | 8.31798 | 10242 ft | 295 kts | 128° |
| 2026-04-17 10:08 | 50.11328 | 8.34408 | 9986 ft | 294 kts | 118° |
| 2026-04-17 10:08 | 50.10649 | 8.37384 | 9724 ft | 292 kts | 99° |
| 2026-04-17 10:08 | 50.10588 | 8.40523 | 9459 ft | 290 kts | 82° |
| 2026-04-17 10:08 | 50.11116 | 8.43537 | 9192 ft | 289 kts | 69° |
| 2026-04-17 10:09 | 50.11830 | 8.46460 | 8936 ft | 289 kts | 69° |
| 2026-04-17 10:09 | 50.12539 | 8.49391 | 8672 ft | 288 kts | 69° |
| 2026-04-17 10:09 | 50.13239 | 8.52310 | 8387 ft | 287 kts | 70° |
| 2026-04-17 10:09 | 50.13931 | 8.55217 | 8104 ft | 286 kts | 70° |
| 2026-04-17 10:10 | 50.14618 | 8.58118 | 7828 ft | 285 kts | 70° |
| 2026-04-17 10:10 | 50.15301 | 8.61005 | 7551 ft | 283 kts | 70° |
| 2026-04-17 10:10 | 50.15983 | 8.63881 | 7281 ft | 282 kts | 70° |
| 2026-04-17 10:11 | 50.17334 | 8.69591 | 6741 ft | 280 kts | 70° |
| 2026-04-17 10:11 | 50.18011 | 8.72429 | 6460 ft | 278 kts | 70° |
| 2026-04-17 10:11 | 50.18685 | 8.75252 | 6168 ft | 277 kts | 70° |
| 2026-04-17 10:11 | 50.19353 | 8.78069 | 5888 ft | 276 kts | 70° |
| 2026-04-17 10:12 | 50.20016 | 8.80878 | 5608 ft | 275 kts | 70° |
| 2026-04-17 10:12 | 50.20672 | 8.83677 | 5330 ft | 274 kts | 71° |
| 2026-04-17 10:12 | 50.21319 | 8.86465 | 5070 ft | 271 kts | 71° |
| 2026-04-17 10:12 | 50.21945 | 8.89163 | 4986 ft | 257 kts | 71° |
| 2026-04-17 10:13 | 50.22342 | 8.91782 | 4986 ft | 241 kts | 93° |
| 2026-04-17 10:13 | 50.21896 | 8.94235 | 4998 ft | 236 kts | 125° |
| 2026-04-17 10:13 | 50.20705 | 8.95911 | 4997 ft | 232 kts | 155° |
| 2026-04-17 10:13 | 50.19201 | 8.96818 | 4996 ft | 232 kts | 163° |
| 2026-04-17 10:14 | 50.17633 | 8.97385 | 4993 ft | 231 kts | 182° |
| 2026-04-17 10:14 | 50.16083 | 8.96842 | 4997 ft | 230 kts | 206° |
| 2026-04-17 10:14 | 50.14804 | 8.95377 | 4995 ft | 230 kts | 229° |
| 2026-04-17 10:14 | 50.14014 | 8.93266 | 4997 ft | 222 kts | 249° |
| 2026-04-17 10:15 | 50.13499 | 8.91064 | 4994 ft | 210 kts | 249° |
| 2026-04-17 10:15 | 50.13019 | 8.89000 | 5019 ft | 194 kts | 249° |
| 2026-04-17 10:15 | 50.12571 | 8.87092 | 5014 ft | 181 kts | 249° |
| 2026-04-17 10:15 | 50.12141 | 8.85263 | 4872 ft | 179 kts | 249° |
| 2026-04-17 10:16 | 50.11715 | 8.83454 | 4637 ft | 177 kts | 249° |
| 2026-04-17 10:16 | 50.11291 | 8.81657 | 4385 ft | 177 kts | 249° |
| 2026-04-17 10:16 | 50.10869 | 8.79865 | 4146 ft | 176 kts | 249° |
| 2026-04-17 10:16 | 50.10446 | 8.78073 | 3896 ft | 176 kts | 249° |
| 2026-04-17 10:17 | 50.10025 | 8.76290 | 3647 ft | 175 kts | 249° |
| 2026-04-17 10:17 | 50.09606 | 8.74517 | 3407 ft | 174 kts | 248° |
| 2026-04-17 10:17 | 50.09187 | 8.72747 | 3151 ft | 174 kts | 249° |
| 2026-04-17 10:17 | 50.08769 | 8.70982 | 2905 ft | 174 kts | 249° |
| 2026-04-17 10:18 | 50.08351 | 8.69218 | 2659 ft | 173 kts | 248° |
| 2026-04-17 10:18 | 50.07934 | 8.67462 | 2432 ft | 172 kts | 249° |
| 2026-04-17 10:18 | 50.07518 | 8.65706 | 2167 ft | 173 kts | 249° |
| 2026-04-17 10:18 | 50.07107 | 8.63975 | 1909 ft | 164 kts | 249° |
| 2026-04-17 10:19 | 50.06728 | 8.62380 | 1687 ft | 152 kts | 249° |
| 2026-04-17 10:19 | 50.06368 | 8.60871 | 1467 ft | 147 kts | 249° |
| 2026-04-17 10:19 | 50.06016 | 8.59391 | 1272 ft | 145 kts | 249° |
| 2026-04-17 10:19 | 50.05668 | 8.57926 | 1053 ft | 144 kts | 250° |
| 2026-04-17 10:20 | 50.05322 | 8.56464 | 844 ft | 144 kts | 250° |
| 2026-04-17 10:20 | 50.04978 | 8.55005 | 692 ft | 144 kts | 250° |
| 2026-04-17 10:20 | 50.04626 | 8.53549 | 490 ft | 144 kts | 250° |
| 2026-04-17 10:20 | 50.04279 | 8.52124 | 344 ft | 132 kts | 250° |
| 2026-04-17 10:21 | 50.04071 | 8.51237 | 328 ft | 41 kts | 244° |
| 2026-04-17 10:21 | 50.03936 | 8.50955 | 325 ft | 26 kts | 220° |
| 2026-04-17 10:21 | 50.03859 | 8.50861 | 326 ft | 6 kts | 219° |
| 2026-04-17 10:21 | 50.03812 | 8.50839 | 332 ft | 5 kts | 171° |
| 2026-04-17 10:22 | 50.03782 | 8.50923 | 331 ft | 12 kts | 81° |
| 2026-04-17 10:22 | 50.03816 | 8.51072 | 331 ft | 20 kts | 69° |
| 2026-04-17 10:22 | 50.03868 | 8.51289 | 332 ft | 22 kts | 70° |
| 2026-04-17 10:22 | 50.03924 | 8.51522 | 332 ft | 24 kts | 69° |
| 2026-04-17 10:23 | 50.03982 | 8.51765 | 335 ft | 25 kts | 69° |
| 2026-04-17 10:23 | 50.04042 | 8.52016 | 335 ft | 25 kts | 70° |
| 2026-04-17 10:23 | 50.04101 | 8.52265 | 347 ft | 24 kts | 69° |
| 2026-04-17 10:23 | 50.04160 | 8.52509 | 356 ft | 24 kts | 69° |
| 2026-04-17 10:24 | 50.04219 | 8.52753 | 358 ft | 26 kts | 69° |
| 2026-04-17 10:24 | 50.04283 | 8.53017 | 355 ft | 26 kts | 69° |
| 2026-04-17 10:24 | 50.04343 | 8.53269 | 366 ft | 23 kts | 70° |
| 2026-04-17 10:24 | 50.04392 | 8.53486 | 374 ft | 21 kts | 78° |
| 2026-04-17 10:25 | 50.04407 | 8.53714 | 375 ft | 22 kts | 85° |
| 2026-04-17 10:25 | 50.04422 | 8.53958 | 375 ft | 23 kts | 83° |
| 2026-04-17 10:25 | 50.04441 | 8.54217 | 375 ft | 25 kts | 83° |
| 2026-04-17 10:25 | 50.04451 | 8.54482 | 369 ft | 21 kts | 98° |
| 2026-04-17 10:26 | 50.04392 | 8.54680 | 362 ft | 21 kts | 129° |
| 2026-04-17 10:26 | 50.04265 | 8.54800 | 358 ft | 18 kts | 160° |
| 2026-04-17 10:26 | 50.04152 | 8.54862 | 357 ft | 15 kts | 160° |
| 2026-04-17 10:26 | 50.04093 | 8.54897 | 357 ft | 6 kts | 159° |
| 2026-04-17 10:27 | 50.04080 | 8.54904 | 351 ft | 0 kts | 159° |
| 2026-04-17 10:27 | 50.04031 | 8.54933 | 357 ft | 13 kts | 159° |
| 2026-04-17 10:27 | 50.03942 | 8.54985 | 355 ft | 15 kts | 160° |
| 2026-04-17 10:27 | 50.03848 | 8.55086 | 349 ft | 18 kts | 98° |
| 2026-04-17 10:28 | 50.03887 | 8.55275 | 352 ft | 19 kts | 70° |
| 2026-04-17 10:28 | 50.03934 | 8.55471 | 352 ft | 20 kts | 69° |
| 2026-04-17 10:28 | 50.03984 | 8.55681 | 358 ft | 21 kts | 70° |
| 2026-04-17 10:28 | 50.04036 | 8.55903 | 351 ft | 22 kts | 70° |
| 2026-04-17 10:29 | 50.04072 | 8.56052 | 358 ft | 22 kts | 69° |
| 2026-04-17 10:29 | 50.04116 | 8.56233 | 355 ft | 13 kts | 69° |
| 2026-04-17 10:29 | 50.04183 | 8.56273 | 355 ft | 12 kts | 343° |
| 2026-04-17 10:29 | 50.04269 | 8.56221 | 357 ft | 12 kts | 331° |
| 2026-04-17 10:30 | 50.04296 | 8.56109 | 357 ft | 13 kts | 289° |
| 2026-04-17 10:30 | 50.04361 | 8.56043 | 363 ft | 10 kts | 338° |
| 2026-04-17 10:30 | 50.04424 | 8.56034 | 358 ft | 9 kts | 25° |
| 2026-04-17 10:30 | 50.04454 | 8.56110 | 357 ft | 10 kts | 73° |
| 2026-04-17 10:31 | 50.04451 | 8.56193 | 363 ft | 6 kts | 149° |
| 2026-04-17 10:31 | 50.04425 | 8.56209 | 362 ft | 3 kts | 159° |
| 2026-04-17 10:31 | 50.04409 | 8.56218 | 357 ft | 2 kts | 159° |
| 2026-04-17 10:31 | 50.04403 | 8.56222 | 361 ft | 0 kts | 159° |